createdAt,value
2023-01-25T00:02:19.509Z,18.00
2023-01-25T00:04:46.708Z,16.35
2023-01-25T00:07:20.491Z,17.17
2023-01-25T00:09:53.483Z,16.95
2023-01-25T00:12:26.492Z,18.95
2023-01-25T00:14:53.293Z,16.23
2023-01-25T00:17:27.600Z,17.02
2023-01-25T00:19:54.391Z,17.65
2023-01-25T00:22:27.530Z,16.05
2023-01-25T00:24:54.303Z,15.60
2023-01-25T00:27:21.051Z,14.25
2023-01-25T00:29:55.554Z,17.13
2023-01-25T00:32:28.673Z,14.00
2023-01-25T00:35:04.691Z,13.48
2023-01-25T00:37:43.593Z,16.50
2023-01-25T00:40:19.587Z,15.55
2023-01-25T00:42:52.541Z,15.75
2023-01-25T00:45:19.383Z,16.35
2023-01-25T00:47:46.220Z,15.65
2023-01-25T00:50:19.600Z,16.83
2023-01-25T00:52:46.365Z,18.00
2023-01-25T00:55:19.560Z,17.92
2023-01-25T00:57:46.417Z,14.02
2023-01-25T01:00:20.619Z,17.73
2023-01-25T01:02:53.577Z,17.35
2023-01-25T01:05:20.329Z,17.08
2023-01-25T01:07:56.565Z,17.27
2023-01-25T01:10:23.385Z,17.63
2023-01-25T01:12:57.718Z,15.68
2023-01-25T01:15:31.605Z,15.82
2023-01-25T01:17:59.826Z,17.38
2023-01-25T01:20:33.590Z,18.05
2023-01-25T01:23:00.548Z,18.83
2023-01-25T01:25:33.598Z,16.92
2023-01-25T01:28:00.540Z,16.50
2023-01-25T01:30:27.290Z,17.90
2023-01-25T01:33:00.583Z,17.77
2023-01-25T01:35:29.520Z,18.35
2023-01-25T01:37:57.104Z,15.70
2023-01-25T01:40:31.619Z,16.67
2023-01-25T01:43:06.722Z,15.57
2023-01-25T01:45:58.715Z,15.93
2023-01-25T01:48:31.538Z,18.63
2023-01-25T01:51:20.678Z,15.30
2023-01-25T01:53:54.300Z,14.77
2023-01-25T01:56:37.729Z,17.45
2023-01-25T01:59:06.527Z,17.88
2023-01-25T02:01:40.752Z,18.00
2023-01-25T02:04:08.885Z,22.33
2023-01-25T02:06:57.623Z,21.52
2023-01-25T02:09:34.682Z,26.65
2023-01-25T02:12:08.650Z,25.30
2023-01-25T02:14:37.621Z,26.33
2023-01-25T02:17:12.690Z,26.35
2023-01-25T02:20:30.667Z,26.58
2023-01-25T02:23:25.075Z,27.08
2023-01-25T02:25:58.695Z,24.15
2023-01-25T02:28:43.730Z,22.05
2023-01-25T02:31:17.865Z,21.70
2023-01-25T02:33:44.927Z,23.08
2023-01-25T02:36:11.625Z,23.95
2023-01-25T02:38:55.723Z,20.98
2023-01-25T02:41:35.952Z,22.63
2023-01-25T02:44:12.737Z,22.08
2023-01-25T02:46:41.310Z,20.42
2023-01-25T02:49:16.706Z,19.08
2023-01-25T02:51:46.677Z,22.00
2023-01-25T02:54:27.775Z,20.73
2023-01-25T02:57:01.750Z,19.40
2023-01-25T02:59:28.530Z,18.55
2023-01-25T03:02:05.795Z,17.65
2023-01-25T03:04:38.868Z,21.38
2023-01-25T03:07:05.713Z,19.58
2023-01-25T03:09:32.513Z,18.08
2023-01-25T03:12:05.761Z,18.90
2023-01-25T03:14:38.750Z,17.00
2023-01-25T03:17:11.813Z,18.63
2023-01-25T03:19:38.679Z,21.52
2023-01-25T03:22:06.795Z,21.25
2023-01-25T03:24:39.831Z,21.70
2023-01-25T03:27:20.805Z,22.23
2023-01-25T03:29:53.760Z,17.52
2023-01-25T03:32:20.823Z,20.48
2023-01-25T03:34:53.790Z,21.83
2023-01-25T03:37:27.850Z,19.60
2023-01-25T03:40:00.782Z,24.42
2023-01-25T03:42:34.893Z,26.60
2023-01-25T03:45:01.778Z,26.77
2023-01-25T03:47:43.784Z,26.02
2023-01-25T03:50:11.317Z,26.02
2023-01-25T03:52:48.920Z,26.90
2023-01-25T03:55:15.711Z,25.33
2023-01-25T03:57:56.803Z,24.58
2023-01-25T04:00:23.637Z,22.40
2023-01-25T04:02:56.914Z,21.88
2023-01-25T04:05:25.349Z,22.60
2023-01-25T04:07:58.848Z,21.40
2023-01-25T04:10:31.917Z,20.75
2023-01-25T04:12:58.702Z,22.77
2023-01-25T04:15:31.875Z,22.85
2023-01-25T04:17:58.649Z,22.17
2023-01-25T04:20:31.839Z,22.20
2023-01-25T04:23:02.613Z,19.75
2023-01-25T04:25:29.680Z,19.38
2023-01-25T04:28:02.897Z,19.75
2023-01-25T04:30:29.724Z,18.35
2023-01-25T04:33:03.000Z,20.83
2023-01-25T04:35:29.869Z,24.00
2023-01-25T04:37:57.979Z,20.67
2023-01-25T04:40:31.903Z,22.42
2023-01-25T04:42:59.028Z,22.38
2023-01-25T04:45:26.655Z,22.30
2023-01-25T04:48:07.875Z,19.83
2023-01-25T04:50:40.923Z,23.27
2023-01-25T04:53:19.921Z,19.10
2023-01-25T04:55:47.748Z,21.00
2023-01-25T04:58:21.948Z,24.10
2023-01-25T05:00:54.962Z,22.73
2023-01-25T05:03:22.725Z,19.00
2023-01-25T05:05:55.988Z,21.45
2023-01-25T05:08:22.805Z,21.00
2023-01-25T05:10:55.989Z,22.75
2023-01-25T05:13:28.956Z,19.98
2023-01-25T05:16:03.966Z,21.42
2023-01-25T05:18:47.114Z,20.02
2023-01-25T05:21:39.948Z,19.70
2023-01-25T05:24:13.959Z,25.67
2023-01-25T05:27:05.956Z,26.30
2023-01-25T05:29:46.986Z,30.30
2023-01-25T05:32:18.395Z,29.58
2023-01-25T05:34:45.414Z,29.13
2023-01-25T05:37:24.986Z,28.33
2023-01-25T05:39:57.991Z,26.60
2023-01-25T05:42:24.781Z,28.15
2023-01-25T05:44:51.662Z,31.20
2023-01-25T05:47:24.975Z,30.00
2023-01-25T05:49:51.835Z,28.45
2023-01-25T05:52:19.452Z,27.95
2023-01-25T05:54:52.995Z,27.30
2023-01-25T05:57:19.826Z,28.55
2023-01-25T05:59:46.669Z,29.85
2023-01-25T06:02:22.153Z,32.30
2023-01-25T06:04:49.100Z,35.45
2023-01-25T06:07:15.904Z,32.78
2023-01-25T06:09:49.026Z,34.13
2023-01-25T06:12:23.029Z,34.22
2023-01-25T06:14:49.849Z,31.65
2023-01-25T06:17:27.085Z,32.38
2023-01-25T06:19:53.936Z,34.63
2023-01-25T06:22:20.776Z,33.63
2023-01-25T06:24:54.054Z,35.88
2023-01-25T06:27:23.354Z,34.95
2023-01-25T06:29:57.073Z,35.38
2023-01-25T06:32:25.865Z,35.30
2023-01-25T06:35:00.179Z,32.17
2023-01-25T06:37:27.208Z,30.67
2023-01-25T06:39:54.092Z,30.25
2023-01-25T06:42:27.193Z,31.35
2023-01-25T06:44:54.011Z,29.80
2023-01-25T06:47:28.073Z,32.28
2023-01-25T06:50:01.076Z,30.55
2023-01-25T06:52:27.992Z,31.52
2023-01-25T06:55:01.097Z,31.85
2023-01-25T06:57:36.115Z,29.25
2023-01-25T07:00:10.137Z,29.55
2023-01-25T07:02:37.777Z,25.00
2023-01-25T07:05:04.735Z,26.90
2023-01-25T07:07:38.142Z,26.55
2023-01-25T07:10:05.273Z,28.75
2023-01-25T07:12:39.174Z,27.30
2023-01-25T07:15:13.170Z,28.40
2023-01-25T07:17:50.171Z,29.35
2023-01-25T07:20:24.195Z,33.35
2023-01-25T07:23:01.181Z,31.10
2023-01-25T07:25:35.243Z,32.90
2023-01-25T07:28:02.131Z,45.03
2023-01-25T07:30:35.111Z,41.67
2023-01-25T07:33:01.857Z,41.65
2023-01-25T07:35:35.212Z,38.05
2023-01-25T07:38:09.182Z,43.63
2023-01-25T07:40:36.157Z,39.00
2023-01-25T07:43:09.187Z,37.17
2023-01-25T07:45:42.149Z,34.17
2023-01-25T07:48:10.964Z,37.17
2023-01-25T07:50:39.493Z,35.92
2023-01-25T07:53:13.222Z,34.40
2023-01-25T07:55:40.107Z,36.63
2023-01-25T07:58:13.151Z,38.10
2023-01-25T08:00:40.389Z,35.58
2023-01-25T08:03:14.166Z,35.45
2023-01-25T08:05:44.809Z,33.75
2023-01-25T08:08:18.226Z,33.10
2023-01-25T08:10:45.090Z,32.80
2023-01-25T08:13:18.235Z,27.67
2023-01-25T08:15:56.213Z,33.38
2023-01-25T08:18:40.292Z,36.53
2023-01-25T08:21:07.257Z,33.63
2023-01-25T08:23:40.227Z,34.72
2023-01-25T08:26:09.672Z,31.63
2023-01-25T08:28:43.275Z,32.10
2023-01-25T08:31:20.297Z,32.97
2023-01-25T08:33:54.281Z,31.17
2023-01-25T08:36:24.057Z,33.30
2023-01-25T08:39:08.271Z,36.13
2023-01-25T08:41:42.265Z,30.95
2023-01-25T08:44:09.682Z,27.90
2023-01-25T08:46:43.408Z,33.45
2023-01-25T08:49:10.821Z,31.48
2023-01-25T08:51:37.702Z,30.95
2023-01-25T08:54:13.265Z,34.95
2023-01-25T08:56:48.259Z,36.85
2023-01-25T08:59:21.351Z,42.15
2023-01-25T09:01:48.297Z,37.83
2023-01-25T09:04:23.338Z,35.72
2023-01-25T09:06:51.103Z,36.80
2023-01-25T09:09:24.284Z,35.50
2023-01-25T09:11:57.502Z,37.28
2023-01-25T09:14:24.475Z,35.38
2023-01-25T09:16:58.354Z,37.45
2023-01-25T09:19:25.178Z,37.47
2023-01-25T09:21:58.329Z,34.25
2023-01-25T09:24:31.525Z,31.83
2023-01-25T09:27:06.370Z,30.63
2023-01-25T09:29:34.312Z,31.20
2023-01-25T09:32:11.412Z,34.15
2023-01-25T09:34:44.363Z,30.38
2023-01-25T09:37:11.296Z,32.50
2023-01-25T09:39:44.365Z,39.75
2023-01-25T09:42:41.383Z,35.10
2023-01-25T09:45:18.412Z,35.10
2023-01-25T09:48:27.335Z,31.80
2023-01-25T09:51:48.424Z,31.30
2023-01-25T09:54:18.631Z,34.08
2023-01-25T09:56:56.394Z,34.38
2023-01-25T09:59:28.453Z,29.58
2023-01-25T10:02:20.536Z,31.50
2023-01-25T10:04:50.253Z,31.65
2023-01-25T10:07:30.433Z,34.13
2023-01-25T10:10:07.797Z,38.25
2023-01-25T10:12:45.380Z,33.67
2023-01-25T10:15:19.466Z,32.95
2023-01-25T10:18:12.401Z,32.72
2023-01-25T10:21:04.447Z,30.65
2023-01-25T10:24:06.443Z,31.77
2023-01-25T10:26:38.922Z,33.00
2023-01-25T10:29:38.504Z,29.77
2023-01-25T10:32:32.454Z,26.80
2023-01-25T10:35:17.516Z,29.65
2023-01-25T10:38:00.448Z,28.23
2023-01-25T10:40:32.119Z,29.02
2023-01-25T10:43:12.472Z,29.25
2023-01-25T10:45:39.321Z,25.15
2023-01-25T10:48:22.490Z,26.58
2023-01-25T10:50:55.122Z,24.50
2023-01-25T10:53:33.587Z,24.55
2023-01-25T10:56:15.494Z,21.27
2023-01-25T10:58:48.629Z,27.23
2023-01-25T11:01:37.665Z,28.08
2023-01-25T11:04:31.534Z,26.00
2023-01-25T11:06:59.641Z,24.85
2023-01-25T11:09:36.517Z,25.30
2023-01-25T11:12:20.418Z,27.02
2023-01-25T11:14:58.768Z,33.17
2023-01-25T11:17:31.414Z,34.97
2023-01-25T11:20:21.506Z,33.17
2023-01-25T11:23:02.498Z,34.40
2023-01-25T11:25:34.172Z,30.35
2023-01-25T11:28:36.693Z,32.90
2023-01-25T11:31:03.594Z,38.00
2023-01-25T11:33:38.506Z,36.38
2023-01-25T11:36:11.065Z,35.17
2023-01-25T11:38:50.517Z,34.17
2023-01-25T11:41:45.303Z,33.53
2023-01-25T11:44:50.637Z,33.30
2023-01-25T11:48:01.202Z,30.13
2023-01-25T11:50:51.583Z,31.67
2023-01-25T11:53:46.127Z,29.38
2023-01-25T11:56:22.575Z,32.42
2023-01-25T11:58:52.363Z,29.48
2023-01-25T12:02:03.568Z,33.83
2023-01-25T12:05:02.339Z,37.35
2023-01-25T12:08:03.605Z,34.65
2023-01-25T12:11:18.558Z,35.22
2023-01-25T12:14:26.562Z,34.85
2023-01-25T12:17:12.709Z,33.00
2023-01-25T12:20:04.429Z,34.88
2023-01-25T12:23:02.571Z,32.50
2023-01-25T12:26:07.350Z,34.03
2023-01-25T12:28:57.562Z,35.53
2023-01-25T12:31:29.146Z,38.17
2023-01-25T12:34:15.672Z,35.92
2023-01-25T12:36:47.963Z,33.33
2023-01-25T12:42:31.362Z,34.17
2023-01-25T12:45:22.652Z,37.50
2023-01-25T12:48:03.382Z,37.00
2023-01-25T12:50:48.661Z,38.42
2023-01-25T12:53:37.707Z,39.30
2023-01-25T12:56:16.892Z,37.60
2023-01-25T12:58:57.003Z,36.20
2023-01-25T13:02:00.745Z,38.85
2023-01-25T13:05:13.684Z,35.92
2023-01-25T13:07:54.717Z,32.03
2023-01-25T13:10:37.625Z,36.90
2023-01-25T13:13:31.830Z,40.92
2023-01-25T13:16:24.161Z,41.95
2023-01-25T13:18:57.978Z,37.05
2023-01-25T13:21:37.164Z,36.00
2023-01-25T13:24:24.085Z,37.28
2023-01-25T13:26:54.168Z,34.83
2023-01-25T13:29:42.688Z,38.95
2023-01-25T13:32:38.717Z,39.45
2023-01-25T13:35:32.523Z,35.50
2023-01-25T13:38:31.725Z,38.17
2023-01-25T13:41:27.699Z,37.03
2023-01-25T13:44:34.728Z,37.17
2023-01-25T13:47:05.286Z,31.75
2023-01-25T13:49:49.688Z,30.40
2023-01-25T13:52:21.316Z,30.35
2023-01-25T13:54:57.025Z,27.27
2023-01-25T13:57:31.566Z,27.95
2023-01-25T14:00:20.940Z,38.20
2023-01-25T14:02:55.063Z,38.17
2023-01-25T14:05:31.747Z,38.88
2023-01-25T14:07:58.776Z,37.88
2023-01-25T14:10:34.781Z,38.65
2023-01-25T14:13:02.516Z,34.00
2023-01-25T14:15:38.718Z,35.13
2023-01-25T14:18:22.783Z,37.20
2023-01-25T14:20:57.816Z,34.08
2023-01-25T14:23:30.105Z,33.13
2023-01-25T14:26:05.874Z,36.65
2023-01-25T14:28:59.524Z,33.22
2023-01-25T14:31:39.929Z,33.67
2023-01-25T14:34:20.809Z,39.95
2023-01-25T14:36:55.063Z,38.65
2023-01-25T14:39:29.735Z,37.80
2023-01-25T14:42:03.915Z,41.70
2023-01-25T14:44:31.077Z,39.55
2023-01-25T14:47:29.828Z,39.35
2023-01-25T14:50:28.682Z,41.67
2023-01-25T14:53:03.983Z,40.53
2023-01-25T14:55:30.795Z,40.95
2023-01-25T14:58:13.818Z,41.10
2023-01-25T15:00:46.890Z,40.00
2023-01-25T15:03:23.831Z,38.85
2023-01-25T15:06:04.867Z,45.50
2023-01-25T15:08:38.650Z,44.47
2023-01-25T15:11:30.844Z,44.08
2023-01-25T15:14:21.170Z,44.10
2023-01-25T15:16:48.291Z,38.22
2023-01-25T15:19:36.839Z,37.47
2023-01-25T15:22:14.861Z,35.30
2023-01-25T15:24:57.375Z,37.78
2023-01-25T15:27:25.165Z,34.53
2023-01-25T15:29:58.921Z,35.38
2023-01-25T15:32:34.025Z,37.03
2023-01-25T15:35:07.937Z,37.28
2023-01-25T15:37:34.687Z,34.90
2023-01-25T15:40:04.119Z,36.45
2023-01-25T15:42:39.068Z,37.10
2023-01-25T15:45:15.889Z,44.63
2023-01-25T15:47:47.364Z,40.17
2023-01-25T15:50:24.943Z,37.78
2023-01-25T15:52:57.937Z,37.80
2023-01-25T15:55:30.926Z,35.78
2023-01-25T15:58:04.920Z,37.80
2023-01-25T16:00:31.927Z,40.28
2023-01-25T16:02:58.675Z,38.30
2023-01-25T16:05:31.889Z,38.28
2023-01-25T16:07:58.781Z,37.20
2023-01-25T16:10:31.937Z,45.13
2023-01-25T16:13:04.982Z,43.58
2023-01-25T16:15:39.741Z,44.85
2023-01-25T16:18:20.075Z,40.97
2023-01-25T16:20:47.019Z,36.00
2023-01-25T16:23:14.048Z,38.40
2023-01-25T16:25:49.230Z,37.88
2023-01-25T16:28:16.934Z,33.75
2023-01-25T16:30:47.248Z,34.67
2023-01-25T16:33:27.248Z,37.38
2023-01-25T16:36:20.507Z,34.55
2023-01-25T16:38:54.235Z,34.60
2023-01-25T16:41:21.215Z,32.33
2023-01-25T16:43:49.135Z,31.85
2023-01-25T16:46:28.285Z,30.10
2023-01-25T16:48:57.889Z,33.33
2023-01-25T16:51:27.035Z,32.45
2023-01-25T16:54:03.314Z,31.98
2023-01-25T16:56:32.923Z,30.38
2023-01-25T16:59:11.998Z,31.65
2023-01-25T17:01:40.793Z,36.00
2023-01-25T17:04:08.742Z,29.58
2023-01-25T17:06:44.311Z,32.50
2023-01-25T17:09:22.963Z,32.53
2023-01-25T17:11:57.993Z,31.33
2023-01-25T17:14:24.834Z,32.08
2023-01-25T17:16:55.408Z,32.97
2023-01-25T17:19:29.018Z,34.17
2023-01-25T17:21:58.980Z,33.13
2023-01-25T17:24:26.601Z,34.38
2023-01-25T17:27:04.345Z,36.00
2023-01-25T17:29:31.324Z,33.63
2023-01-25T17:31:58.710Z,31.55
2023-01-25T17:34:32.061Z,31.35
2023-01-25T17:37:05.156Z,35.05
2023-01-25T17:39:33.054Z,34.67
2023-01-25T17:42:06.075Z,35.47
2023-01-25T17:44:32.920Z,36.88
2023-01-25T17:46:59.808Z,39.40
2023-01-25T17:49:35.214Z,35.90
2023-01-25T17:52:07.725Z,37.65
2023-01-25T17:54:43.095Z,39.33
2023-01-25T17:57:17.109Z,40.17
2023-01-25T17:59:43.962Z,40.63
2023-01-25T18:02:11.348Z,40.65
2023-01-25T18:04:45.089Z,42.17
2023-01-25T18:07:18.253Z,42.35
2023-01-25T18:09:45.070Z,43.15
2023-01-25T18:12:11.882Z,39.90
2023-01-25T18:14:45.231Z,40.63
2023-01-25T18:17:12.857Z,43.03
2023-01-25T18:19:39.791Z,42.55
2023-01-25T18:22:13.215Z,42.88
2023-01-25T18:24:40.649Z,46.22
2023-01-25T18:27:34.187Z,43.15
2023-01-25T18:30:01.113Z,43.40
2023-01-25T18:32:30.371Z,39.38
2023-01-25T18:35:04.266Z,43.38
2023-01-25T18:37:35.843Z,43.25
2023-01-25T18:40:02.816Z,43.27
2023-01-25T18:42:38.157Z,41.17
2023-01-25T18:45:05.888Z,40.15
2023-01-25T18:47:39.206Z,40.38
2023-01-25T18:50:13.315Z,44.80
2023-01-25T18:52:40.230Z,39.75
2023-01-25T18:55:14.471Z,45.33
2023-01-25T18:57:44.228Z,47.85
2023-01-25T19:00:21.165Z,46.47
2023-01-25T19:02:55.238Z,41.20
2023-01-25T19:05:50.202Z,43.42
2023-01-25T19:08:24.569Z,39.20
2023-01-25T19:10:57.918Z,40.95
2023-01-25T19:13:32.470Z,46.97
2023-01-25T19:16:12.866Z,43.05
2023-01-25T19:18:53.508Z,45.20
2023-01-25T19:21:25.877Z,41.42
2023-01-25T19:26:34.279Z,41.70
2023-01-25T19:29:07.386Z,39.45
2023-01-25T19:31:37.272Z,46.03
2023-01-25T19:34:06.583Z,44.83
2023-01-25T19:36:42.257Z,43.47
2023-01-25T19:39:10.169Z,46.20
2023-01-25T19:41:45.564Z,46.10
2023-01-25T19:44:14.080Z,48.28
2023-01-25T19:46:41.401Z,43.92
2023-01-25T19:49:16.295Z,44.25
2023-01-25T19:51:55.298Z,40.08
2023-01-25T19:54:23.112Z,44.80
2023-01-25T19:56:56.390Z,42.65
2023-01-25T19:59:25.388Z,43.47
2023-01-25T20:01:52.593Z,42.22
2023-01-25T20:04:28.292Z,40.90
2023-01-25T20:07:02.398Z,43.53
2023-01-25T20:09:36.335Z,46.10
2023-01-25T20:12:07.897Z,47.30
2023-01-25T20:14:43.350Z,49.25
2023-01-25T20:17:17.307Z,47.80
2023-01-25T20:19:44.391Z,46.85
2023-01-25T20:22:19.468Z,43.42
2023-01-25T20:24:46.633Z,43.97
2023-01-25T20:27:20.460Z,41.90
2023-01-25T20:29:49.120Z,42.50
2023-01-25T20:32:31.515Z,41.38
2023-01-25T20:35:10.664Z,45.28
2023-01-25T20:37:44.315Z,42.17
2023-01-25T20:40:19.417Z,40.90
2023-01-25T20:42:55.438Z,43.75
2023-01-25T20:45:22.465Z,42.80
2023-01-25T20:47:49.762Z,43.22
2023-01-25T20:50:23.416Z,41.53
2023-01-25T20:52:57.371Z,40.92
2023-01-25T20:55:24.316Z,41.80
2023-01-25T20:57:57.426Z,44.13
2023-01-25T21:00:25.648Z,48.28
2023-01-25T21:05:30.466Z,45.33
2023-01-25T21:08:03.430Z,43.25
2023-01-25T21:10:36.495Z,47.00
2023-01-25T21:13:04.643Z,43.40
2023-01-25T21:15:38.486Z,43.10
2023-01-25T21:18:12.701Z,45.38
2023-01-25T21:20:39.715Z,42.60
2023-01-25T21:23:06.550Z,42.15
2023-01-25T21:25:40.399Z,41.85
2023-01-25T21:28:07.224Z,37.55
2023-01-25T21:30:40.737Z,41.78
2023-01-25T21:33:10.410Z,39.92
2023-01-25T21:35:37.245Z,37.50
2023-01-25T21:38:10.592Z,34.67
2023-01-25T21:40:37.719Z,37.92
2023-01-25T21:43:17.448Z,40.33
2023-01-25T21:46:26.439Z,39.17
2023-01-25T21:49:23.447Z,38.60
2023-01-25T21:51:59.454Z,34.55
2023-01-25T21:54:38.738Z,36.58
2023-01-25T21:57:11.501Z,40.38
2023-01-25T21:59:47.458Z,38.17
2023-01-25T22:02:21.649Z,38.40
2023-01-25T22:04:48.475Z,39.85
2023-01-25T22:07:15.206Z,41.72
2023-01-25T22:09:48.702Z,41.42
2023-01-25T22:12:15.431Z,43.15
2023-01-25T22:14:42.180Z,48.97
2023-01-25T22:17:15.536Z,42.65
2023-01-25T22:19:42.394Z,46.40
2023-01-25T22:22:15.792Z,44.00
2023-01-25T22:24:42.616Z,42.60
2023-01-25T22:27:27.758Z,46.63
2023-01-25T22:29:54.569Z,50.00
2023-01-25T22:32:21.355Z,46.83
2023-01-25T22:34:54.621Z,46.03
2023-01-25T22:37:21.875Z,43.97
2023-01-25T22:39:48.676Z,41.90
2023-01-25T22:42:21.517Z,41.78
2023-01-25T22:44:48.259Z,42.30
2023-01-25T22:47:21.535Z,49.15
2023-01-25T22:49:48.265Z,42.08
2023-01-25T22:52:21.482Z,42.17
2023-01-25T22:54:50.268Z,40.10
2023-01-25T22:57:23.594Z,48.00
2023-01-25T22:59:50.405Z,38.75
2023-01-25T23:02:29.525Z,42.90
2023-01-25T23:04:57.562Z,40.85
2023-01-25T23:07:30.543Z,41.55
2023-01-25T23:09:57.749Z,45.58
2023-01-25T23:12:31.599Z,46.10
2023-01-25T23:15:05.687Z,46.90
2023-01-25T23:18:02.566Z,46.17
2023-01-25T23:20:29.942Z,45.97
2023-01-25T23:23:09.529Z,41.50
2023-01-25T23:25:39.025Z,45.25
2023-01-25T23:28:15.577Z,42.33
2023-01-25T23:30:48.680Z,42.08
2023-01-25T23:33:15.514Z,40.50
2023-01-25T23:35:50.550Z,37.55
2023-01-25T23:38:23.719Z,41.80
2023-01-25T23:40:50.469Z,39.45
2023-01-25T23:43:26.767Z,36.53
2023-01-25T23:45:53.673Z,37.25
2023-01-25T23:48:20.516Z,39.58
2023-01-25T23:50:53.613Z,37.10
2023-01-25T23:53:20.903Z,35.17
2023-01-25T23:56:05.614Z,37.58
2023-01-25T23:58:44.655Z,36.90
